Time;durP1;ratioP1;P1;durP2;ratioP2;P2;SDS_P1;SDS_P2;PMS_P1;PMS_P2;Temp;Humidity;BMP_temperature;BMP_pressure;BME280_temperature;BME280_humidity;BME280_pressure;Samples;Min_cycle;Max_cycle;Signal;HPM_P1;HPM_P2
2023/10/07 00:00:27;;;;;;;12.50;4.38;;;16.00;99.90;;;;;;5018504;28;20060;-65
2023/10/07 00:02:55;;;;;;;17.17;4.82;;;16.10;99.90;;;;;;5052881;28;20045;-65
2023/10/07 00:05:27;;;;;;;17.50;4.30;;;16.00;99.90;;;;;;5039122;28;20057;-64
2023/10/07 00:08:00;;;;;;;19.02;4.93;;;16.10;99.90;;;;;;5032261;28;20140;-66
2023/10/07 00:10:30;;;;;;;13.10;4.93;;;16.10;99.90;;;;;;5032500;28;20369;-64
2023/10/07 00:12:58;;;;;;;11.13;4.55;;;16.20;99.90;;;;;;5033066;28;20091;-64
2023/10/07 00:15:28;;;;;;;12.55;4.43;;;16.20;99.90;;;;;;5045963;28;20122;-64
2023/10/07 00:18:06;;;;;;;15.35;4.68;;;16.20;99.90;;;;;;5034324;28;20071;-64
2023/10/07 00:20:33;;;;;;;12.30;4.68;;;16.20;99.90;;;;;;5052315;28;20049;-65
2023/10/07 00:23:01;;;;;;;14.73;4.65;;;16.30;99.90;;;;;;5052290;28;20434;-64
2023/10/07 00:25:30;;;;;;;15.18;5.18;;;16.30;99.90;;;;;;5037533;28;20050;-63
2023/10/07 00:27:58;;;;;;;16.17;4.95;;;16.30;99.90;;;;;;5031692;28;20041;-65
2023/10/07 00:30:27;;;;;;;17.15;5.28;;;16.40;99.90;;;;;;5031959;28;20060;-64
2023/10/07 00:32:55;;;;;;;13.07;4.18;;;16.30;99.90;;;;;;5032242;28;20145;-65
2023/10/07 00:35:23;;;;;;;14.38;4.10;;;16.30;99.90;;;;;;5033949;28;20164;-65
2023/10/07 00:37:49;;;;;;;13.88;4.80;;;16.40;99.90;;;;;;5051782;28;20438;-63
2023/10/07 00:41:03;;;;;;;14.93;4.57;;;16.50;99.90;;;;;;5033832;28;20068;-64
2023/10/07 00:43:08;;;;;;;14.55;4.47;;;16.40;99.90;;;;;;5040810;28;20098;-64
2023/10/07 00:45:34;;;;;;;11.80;4.88;;;16.40;99.90;;;;;;5037020;28;20103;-65
2023/10/07 00:48:10;;;;;;;9.18;4.05;;;16.50;99.90;;;;;;5030596;28;20373;-64
2023/10/07 00:50:38;;;;;;;12.50;4.65;;;16.40;99.90;;;;;;5032196;28;20060;-65
2023/10/07 00:53:08;;;;;;;13.65;4.50;;;16.40;99.90;;;;;;5032007;28;20498;-64
2023/10/07 00:55:35;;;;;;;14.57;4.63;;;16.50;99.90;;;;;;5046315;28;20048;-65
2023/10/07 01:03:31;;;;;;;18.20;5.18;;;16.60;99.90;;;;;;5051638;28;20045;-65
2023/10/07 01:08:34;;;;;;;13.30;4.60;;;16.50;99.90;;;;;;5031230;28;20049;-65
2023/10/07 01:13:48;;;;;;;12.57;5.32;;;16.50;99.90;;;;;;5031656;28;20111;-63
2023/10/07 01:16:25;;;;;;;15.27;4.88;;;16.60;99.90;;;;;;5050869;28;20110;-64
2023/10/07 01:18:58;;;;;;;16.17;4.45;;;16.50;99.90;;;;;;5050879;28;20110;-63
2023/10/07 01:21:31;;;;;;;12.48;4.43;;;16.60;99.90;;;;;;5051023;28;20049;-65
2023/10/07 01:24:06;;;;;;;15.82;4.60;;;16.70;99.90;;;;;;5049659;28;20053;-63
2023/10/07 01:26:44;;;;;;;12.82;4.90;;;16.70;99.90;;;;;;5031048;28;20064;-65
2023/10/07 01:29:15;;;;;;;14.98;4.85;;;16.70;99.90;;;;;;5038658;28;20049;-64
2023/10/07 01:32:03;;;;;;;13.68;5.40;;;16.60;99.90;;;;;;5050897;28;20433;-64
2023/10/07 01:34:30;;;;;;;13.60;5.28;;;16.70;99.90;;;;;;5027047;28;20119;-64
2023/10/07 01:37:00;;;;;;;12.70;4.57;;;16.70;99.90;;;;;;5030827;28;20045;-63
2023/10/07 01:39:40;;;;;;;14.80;4.72;;;16.70;99.90;;;;;;5030584;28;20060;-63
2023/10/07 01:45:20;;;;;;;14.75;4.90;;;16.80;99.90;;;;;;4961414;28;20390;-64
2023/10/07 01:47:54;;;;;;;12.68;5.18;;;16.70;99.90;;;;;;4968722;28;20055;-63
2023/10/07 01:50:24;;;;;;;13.13;4.38;;;16.80;99.90;;;;;;5015468;28;20055;-63
2023/10/07 01:52:55;;;;;;;15.77;5.28;;;16.70;99.90;;;;;;5050920;28;20053;-64
2023/10/07 01:55:26;;;;;;;14.68;4.30;;;16.70;99.90;;;;;;5037942;28;20049;-65
2023/10/07 01:57:52;;;;;;;;;;;16.70;99.90;;;;;;5030742;28;20050;-62
2023/10/07 02:00:40;;;;;;;13.25;5.10;;;16.70;99.90;;;;;;5030629;28;19983;-64
2023/10/07 02:03:08;;;;;;;12.57;4.85;;;16.70;99.90;;;;;;5030816;28;20149;-64
2023/10/07 02:05:40;;;;;;;16.80;5.10;;;16.70;99.90;;;;;;5044422;28;20045;-65
2023/10/07 02:08:12;;;;;;;14.65;5.03;;;16.80;99.90;;;;;;5049861;28;20106;-65
2023/10/07 02:10:41;;;;;;;14.00;5.05;;;16.80;99.90;;;;;;5050332;28;20048;-65
2023/10/07 02:13:13;;;;;;;11.75;4.53;;;16.70;99.90;;;;;;5032475;28;20053;-65
2023/10/07 02:15:43;;;;;;;14.23;4.80;;;16.90;99.90;;;;;;5034987;28;20064;-63
2023/10/07 02:18:16;;;;;;;9.18;4.50;;;16.90;99.90;;;;;;5029845;28;20049;-63
2023/10/07 02:20:50;;;;;;;14.23;4.90;;;16.90;99.90;;;;;;5030029;28;20055;-65
2023/10/07 02:23:22;;;;;;;15.68;5.13;;;17.00;99.90;;;;;;5045600;28;20083;-65
2023/10/07 02:25:49;;;;;;;17.50;5.35;;;16.90;99.90;;;;;;5032775;28;20457;-65
2023/10/07 02:28:21;;;;;;;11.27;4.47;;;17.00;99.90;;;;;;5049385;28;20044;-62
2023/10/07 02:31:09;;;;;;;15.95;5.43;;;17.00;99.90;;;;;;5049874;28;20095;-63
2023/10/07 02:33:42;;;;;;;12.18;4.22;;;17.10;99.90;;;;;;5049429;28;20049;-64
2023/10/07 02:36:14;;;;;;;15.35;5.22;;;17.10;99.90;;;;;;5031105;28;20041;-65
2023/10/07 02:38:43;;;;;;;14.30;5.57;;;17.10;99.90;;;;;;5029406;28;20410;-63
2023/10/07 02:41:17;;;;;;;17.80;5.30;;;17.10;99.90;;;;;;5028572;28;20053;-64
2023/10/07 02:43:48;;;;;;;15.45;5.72;;;17.00;99.90;;;;;;5029785;28;20190;-63
2023/10/07 02:49:14;;;;;;;9.73;4.47;;;17.10;99.90;;;;;;5035912;28;20445;-64
2023/10/07 02:51:48;;;;;;;12.32;4.90;;;17.10;99.90;;;;;;5049740;28;20507;-63
2023/10/07 02:54:19;;;;;;;12.38;5.30;;;17.20;99.90;;;;;;5046663;28;20056;-66
2023/10/07 02:56:55;;;;;;;15.75;5.30;;;17.10;99.90;;;;;;5029946;28;20053;-64
2023/10/07 02:59:29;;;;;;;14.23;4.43;;;17.10;99.90;;;;;;5029543;28;20049;-63
2023/10/07 03:02:12;;;;;;;12.52;4.60;;;17.20;99.90;;;;;;5029939;28;20061;-66
2023/10/07 03:04:43;;;;;;;15.10;5.00;;;17.20;99.90;;;;;;5035598;28;20067;-65
2023/10/07 03:07:14;;;;;;;15.25;5.57;;;17.20;99.90;;;;;;5048743;28;20056;-64
2023/10/07 03:09:55;;;;;;;13.60;4.57;;;17.30;99.90;;;;;;5048934;28;20045;-65
2023/10/07 03:12:27;;;;;;;14.63;4.65;;;17.30;99.90;;;;;;5035876;28;20064;-63
2023/10/07 03:14:59;;;;;;;10.73;4.72;;;17.20;99.90;;;;;;5045418;28;20099;-67
2023/10/07 03:17:39;;;;;;;11.40;4.60;;;17.30;99.90;;;;;;5033390;28;20447;-63
2023/10/07 03:28:24;;;;;;;11.50;4.93;;;17.40;99.90;;;;;;5032154;28;20057;-64
2023/10/07 03:30:55;;;;;;;14.40;5.35;;;17.30;99.90;;;;;;5033334;28;20046;-66
2023/10/07 03:33:32;;;;;;;15.90;5.53;;;17.30;99.90;;;;;;5033532;28;20053;-66
2023/10/07 03:36:09;;;;;;;14.23;4.78;;;17.40;99.90;;;;;;5049911;28;20052;-64
2023/10/07 03:38:35;;;;;;;14.82;4.63;;;17.30;99.90;;;;;;5052753;28;20060;-63
2023/10/07 03:41:09;;;;;;;15.95;4.22;;;17.30;99.90;;;;;;5052965;28;20167;-64
2023/10/07 03:43:37;;;;;;;8.88;4.68;;;17.40;99.90;;;;;;5052821;28;20394;-64
2023/10/07 03:46:03;;;;;;;13.55;4.88;;;17.40;99.90;;;;;;5035204;28;20045;-64
2023/10/07 03:48:32;;;;;;;12.15;4.60;;;17.30;99.90;;;;;;5032168;28;20049;-62
2023/10/07 03:51:04;;;;;;;12.70;4.90;;;17.30;99.90;;;;;;5032932;28;20421;-66
2023/10/07 03:53:32;;;;;;;16.80;5.40;;;17.40;99.90;;;;;;5033158;28;20252;-64
2023/10/07 03:56:06;;;;;;;16.90;4.60;;;17.40;99.90;;;;;;5049008;28;20060;-64
2023/10/07 03:58:34;;;;;;;12.32;5.00;;;17.40;99.90;;;;;;5052778;28;20052;-63
2023/10/07 04:01:11;;;;;;;17.58;4.78;;;17.30;99.90;;;;;;5052954;28;20053;-63
2023/10/07 04:03:46;;;;;;;13.73;5.88;;;17.40;99.90;;;;;;5052895;28;20122;-65
2023/10/07 04:06:14;;;;;;;11.85;4.68;;;17.40;99.90;;;;;;5034141;28;20045;-63
2023/10/07 04:08:40;;;;;;;18.52;5.07;;;17.40;99.90;;;;;;5032254;28;20041;-66
2023/10/07 04:11:16;;;;;;;11.82;4.10;;;17.50;99.90;;;;;;5032373;28;20045;-64
2023/10/07 04:13:44;;;;;;;13.68;4.32;;;17.40;99.90;;;;;;5032565;28;20077;-65
2023/10/07 04:16:23;;;;;;;11.10;4.70;;;17.50;99.90;;;;;;5050401;28;20107;-64
2023/10/07 04:18:50;;;;;;;11.50;4.57;;;17.60;99.90;;;;;;5052304;28;20049;-65
2023/10/07 04:21:17;;;;;;;10.82;4.90;;;17.60;99.90;;;;;;5051728;28;20058;-64
2023/10/07 04:23:44;;;;;;;12.40;4.55;;;17.50;99.90;;;;;;5052256;28;20118;-65
2023/10/07 04:26:19;;;;;;;10.85;4.40;;;17.30;99.90;;;;;;5030609;28;20053;-64
2023/10/07 04:28:48;;;;;;;10.20;4.10;;;17.40;99.90;;;;;;5031960;28;20140;-65
2023/10/07 04:31:17;;;;;;;14.80;4.50;;;17.40;99.90;;;;;;5031061;28;20057;-63
2023/10/07 04:33:53;;;;;;;12.73;4.30;;;17.40;99.90;;;;;;5032192;28;20049;-64
2023/10/07 04:36:54;;;;;;;11.93;4.70;;;17.30;99.90;;;;;;5051119;28;20068;-63
2023/10/07 04:39:18;;;;;;;11.65;5.10;;;17.40;99.90;;;;;;5051171;28;20349;-65
2023/10/07 04:41:56;;;;;;;11.13;4.30;;;17.40;99.90;;;;;;5051666;28;20045;-64
2023/10/07 04:44:27;;;;;;;13.45;4.57;;;17.40;99.90;;;;;;5048843;28;20103;-64
2023/10/07 04:46:56;;;;;;;14.10;4.80;;;17.50;99.90;;;;;;5031847;28;20060;-66
2023/10/07 04:49:36;;;;;;;10.18;3.85;;;17.40;99.90;;;;;;5030358;28;20067;-65
2023/10/07 04:52:06;;;;;;;11.23;4.32;;;17.50;99.90;;;;;;5030915;28;20084;-64
2023/10/07 04:54:35;;;;;;;10.35;4.10;;;17.40;99.90;;;;;;5035392;28;20511;-63
2023/10/07 04:57:09;;;;;;;10.23;4.88;;;17.40;99.90;;;;;;5051064;28;20381;-64
2023/10/07 04:59:44;;;;;;;15.70;4.70;;;17.30;99.90;;;;;;5051915;28;20121;-64
2023/10/07 05:02:10;;;;;;;14.20;4.30;;;17.30;99.90;;;;;;5051413;28;20048;-65
2023/10/07 05:04:39;;;;;;;14.13;5.35;;;17.30;99.90;;;;;;5046379;28;20042;-65
2023/10/07 05:07:06;;;;;;;13.82;5.10;;;17.20;99.90;;;;;;5031219;28;20049;-66
2023/10/07 05:09:32;;;;;;;12.15;4.53;;;17.20;99.90;;;;;;5031647;28;20053;-64
2023/10/07 05:12:01;;;;;;;11.73;4.40;;;17.10;99.90;;;;;;5031021;28;20041;-63
2023/10/07 05:14:27;;;;;;;12.73;4.50;;;17.10;99.90;;;;;;5034305;28;20634;-64
2023/10/07 05:16:58;;;;;;;12.60;4.28;;;17.10;99.90;;;;;;5050842;28;20437;-66
2023/10/07 05:19:26;;;;;;;14.52;4.82;;;17.10;99.90;;;;;;5033773;28;20056;-65
2023/10/07 05:22:05;;;;;;;14.73;4.85;;;17.20;99.90;;;;;;5051332;28;20060;-63
2023/10/07 05:24:32;;;;;;;13.38;4.45;;;17.20;99.90;;;;;;5047014;28;20144;-64
2023/10/07 05:27:03;;;;;;;11.93;5.05;;;17.10;99.90;;;;;;5030873;28;20049;-64
2023/10/07 05:29:29;;;;;;;14.80;4.97;;;17.00;99.90;;;;;;5031745;28;20096;-64
2023/10/07 05:31:56;;;;;;;14.38;5.60;;;17.10;99.90;;;;;;5031133;28;20454;-65
2023/10/07 05:34:28;;;;;;;14.05;4.47;;;17.10;99.90;;;;;;5033663;28;20052;-63
2023/10/07 05:37:04;;;;;;;12.13;4.70;;;17.00;99.90;;;;;;5050914;28;20053;-65
2023/10/07 05:39:32;;;;;;;13.98;5.80;;;17.00;99.90;;;;;;5051128;28;20103;-65
2023/10/07 05:41:58;;;;;;;9.63;5.00;;;17.00;99.90;;;;;;5050448;28;20045;-65
2023/10/07 05:44:25;;;;;;;12.15;4.78;;;16.90;99.90;;;;;;5029968;28;20048;-63
2023/10/07 05:46:51;;;;;;;11.07;5.38;;;17.00;99.90;;;;;;5030712;28;20457;-64
2023/10/07 05:49:18;;;;;;;12.80;4.82;;;16.90;99.90;;;;;;5030285;28;20045;-65
2023/10/07 05:51:44;;;;;;;10.95;4.72;;;17.00;99.90;;;;;;5030130;28;20140;-64
2023/10/07 05:54:10;;;;;;;15.05;5.32;;;16.90;99.90;;;;;;5031176;28;20057;-64
2023/10/07 05:56:37;;;;;;;13.25;5.10;;;17.00;99.90;;;;;;5050355;28;20049;-64
2023/10/07 05:59:03;;;;;;;10.70;4.45;;;17.00;99.90;;;;;;5050224;28;20110;-65
2023/10/07 06:01:33;;;;;;;16.92;5.35;;;17.00;99.90;;;;;;5050328;28;20049;-63
2023/10/07 06:04:00;;;;;;;13.45;4.78;;;17.00;99.90;;;;;;5050378;28;20053;-65
2023/10/07 06:06:29;;;;;;;14.30;4.75;;;17.10;99.90;;;;;;5049284;28;20049;-63
2023/10/07 06:08:55;;;;;;;12.73;5.00;;;17.00;99.90;;;;;;5049825;28;20049;-64
2023/10/07 06:11:23;;;;;;;13.68;4.72;;;17.00;99.90;;;;;;5050239;28;20062;-64
2023/10/07 06:13:49;;;;;;;13.15;4.82;;;17.10;99.90;;;;;;5032855;28;20084;-64
2023/10/07 06:16:15;;;;;;;14.88;4.45;;;17.10;99.90;;;;;;5028766;28;20058;-63
2023/10/07 06:18:42;;;;;;;12.43;4.70;;;17.10;99.90;;;;;;5028584;28;20501;-63
2023/10/07 06:21:19;;;;;;;13.50;4.90;;;17.10;99.90;;;;;;5030162;28;20090;-64
2023/10/07 06:23:48;;;;;;;12.05;5.28;;;17.10;99.90;;;;;;5030159;28;20296;-65
2023/10/07 06:26:15;;;;;;;12.38;4.20;;;17.20;99.90;;;;;;5047123;28;20103;-63
2023/10/07 06:28:45;;;;;;;15.07;4.47;;;17.10;99.90;;;;;;5041695;28;20485;-64
2023/10/07 06:31:13;;;;;;;10.48;4.00;;;17.10;99.90;;;;;;5030232;28;20148;-65
2023/10/07 06:33:44;;;;;;;15.27;4.35;;;17.20;99.90;;;;;;5029950;28;20175;-64
2023/10/07 06:36:14;;;;;;;14.50;5.20;;;17.20;99.90;;;;;;5046673;28;20049;-64
2023/10/07 06:38:52;;;;;;;13.30;5.20;;;17.10;99.90;;;;;;5054113;28;20055;-64
2023/10/07 06:41:19;;;;;;;12.15;4.82;;;17.10;99.90;;;;;;5049967;28;20059;-64
2023/10/07 06:43:53;;;;;;;12.80;5.25;;;17.20;99.90;;;;;;5032186;28;20068;-65
2023/10/07 06:46:20;;;;;;;12.90;4.43;;;17.20;99.90;;;;;;5030677;28;20119;-63
2023/10/07 06:48:50;;;;;;;13.20;4.93;;;17.20;99.90;;;;;;5029054;28;20064;-66
2023/10/07 06:51:16;;;;;;;9.25;4.60;;;17.10;99.90;;;;;;5029685;28;20046;-64
2023/10/07 06:53:43;;;;;;;12.13;4.25;;;17.10;99.90;;;;;;5029391;28;20049;-65
2023/10/07 06:56:22;;;;;;;13.02;4.75;;;17.10;99.90;;;;;;5027945;28;20155;-66
2023/10/07 06:58:53;;;;;;;13.60;4.88;;;17.20;99.90;;;;;;5029422;28;20054;-65
2023/10/07 07:01:35;;;;;;;15.55;5.10;;;17.30;99.90;;;;;;5029425;28;20049;-66
2023/10/07 07:04:10;;;;;;;20.67;5.05;;;17.20;99.90;;;;;;5028013;28;20057;-64
2023/10/07 07:06:46;;;;;;;12.68;5.03;;;17.30;99.90;;;;;;5031325;28;20080;-65
2023/10/07 07:12:09;;;;;;;15.32;5.30;;;17.40;99.90;;;;;;5042512;28;20041;-64
2023/10/07 07:14:36;;;;;;;11.25;4.50;;;17.50;99.90;;;;;;5038636;28;20068;-64
2023/10/07 07:20:19;;;;;;;12.38;4.95;;;17.60;99.90;;;;;;5037049;28;20389;-65
2023/10/07 07:22:45;;;;;;;17.88;5.30;;;17.60;99.90;;;;;;5019421;28;20058;-64
2023/10/07 07:27:54;;;;;;;15.48;5.65;;;17.90;99.90;;;;;;5038328;28;20037;-66
2023/10/07 07:30:30;;;;;;;12.70;4.47;;;17.80;99.90;;;;;;5034727;28;20107;-66
2023/10/07 07:32:59;;;;;;;12.63;4.32;;;18.10;99.90;;;;;;5011927;28;20127;-65
2023/10/07 07:35:39;;;;;;;10.50;4.47;;;18.00;99.90;;;;;;5038863;28;20114;-64
2023/10/07 07:38:22;;;;;;;12.63;4.80;;;18.20;99.90;;;;;;5039689;28;20060;-65
2023/10/07 07:40:49;;;;;;;14.05;5.00;;;18.10;99.90;;;;;;5039453;28;20049;-65
2023/10/07 07:43:19;;;;;;;14.68;4.65;;;18.10;99.90;;;;;;5035809;28;20060;-64
2023/10/07 07:45:56;;;;;;;12.50;5.13;;;18.10;99.90;;;;;;5027192;28;20061;-62
2023/10/07 07:48:25;;;;;;;12.30;4.78;;;18.10;99.90;;;;;;5028300;28;20068;-63
2023/10/07 07:50:53;;;;;;;12.95;4.63;;;18.10;99.90;;;;;;5029451;28;20041;-62
2023/10/07 07:53:20;;;;;;;15.20;5.13;;;18.00;99.90;;;;;;5029270;28;20057;-62
2023/10/07 07:55:47;;;;;;;13.43;4.65;;;18.20;99.90;;;;;;5041590;28;20053;-64
2023/10/07 07:58:13;;;;;;;8.98;4.30;;;18.20;99.90;;;;;;5051220;28;20061;-63
2023/10/07 08:00:44;;;;;;;13.75;5.15;;;18.20;99.90;;;;;;5052368;28;20111;-63
2023/10/07 08:03:12;;;;;;;13.23;4.43;;;18.40;99.90;;;;;;5051401;28;20044;-66
2023/10/07 08:05:41;;;;;;;12.82;5.60;;;18.40;99.90;;;;;;5048395;28;20364;-64
2023/10/07 08:08:18;;;;;;;9.93;4.40;;;18.40;99.90;;;;;;5048583;28;20110;-66
2023/10/07 08:10:48;;;;;;;13.98;4.90;;;18.50;99.90;;;;;;5033177;28;20049;-64
2023/10/07 08:13:23;;;;;;;12.82;4.40;;;18.50;99.90;;;;;;5049282;28;20148;-65
2023/10/07 08:15:53;;;;;;;12.63;4.97;;;18.50;99.90;;;;;;5039265;28;20135;-65
2023/10/07 08:18:28;;;;;;;15.38;4.97;;;18.50;99.90;;;;;;5032064;28;20170;-66
2023/10/07 08:21:08;;;;;;;11.32;4.55;;;18.60;99.90;;;;;;5049342;28;20049;-65
2023/10/07 08:23:40;;;;;;;18.60;5.05;;;18.70;99.90;;;;;;5052352;28;20061;-65
2023/10/07 08:26:10;;;;;;;14.02;4.53;;;18.80;99.90;;;;;;5050996;28;20056;-64
2023/10/07 08:28:42;;;;;;;13.60;4.50;;;18.80;99.90;;;;;;5051626;28;20384;-63
2023/10/07 08:31:19;;;;;;;14.13;4.93;;;18.90;99.90;;;;;;5052053;28;20056;-65
2023/10/07 08:34:09;;;;;;;13.00;3.97;;;19.00;99.90;;;;;;5051918;28;20106;-63
2023/10/07 08:36:36;;;;;;;11.00;4.40;;;19.00;99.90;;;;;;5050955;28;20053;-64
2023/10/07 08:39:09;;;;;;;10.68;4.18;;;19.20;99.90;;;;;;5050086;28;20446;-61
2023/10/07 08:41:40;;;;;;;13.02;4.55;;;19.30;99.90;;;;;;5051209;28;20175;-64
2023/10/07 08:44:31;;;;;;;10.63;4.60;;;19.40;99.90;;;;;;5031869;28;20056;-63
2023/10/07 08:47:05;;;;;;;12.65;4.45;;;19.60;99.90;;;;;;5030294;28;20053;-63
2023/10/07 08:49:35;;;;;;;9.02;4.10;;;19.60;99.90;;;;;;5029737;28;20049;-64
2023/10/07 08:52:08;;;;;;;9.75;3.97;;;19.60;99.90;;;;;;4997564;28;20072;-62
2023/10/07 08:54:37;;;;;;;15.85;4.60;;;19.70;99.90;;;;;;5033793;28;20135;-62
2023/10/07 08:57:15;;;;;;;11.02;4.32;;;19.70;99.90;;;;;;5050813;28;20462;-63
2023/10/07 08:59:49;;;;;;;9.70;3.97;;;19.70;99.90;;;;;;5051403;28;20045;-62
2023/10/07 09:02:26;;;;;;;9.60;3.83;;;19.70;99.90;;;;;;5051237;28;20060;-62
2023/10/07 09:05:06;;;;;;;11.55;4.78;;;19.70;99.90;;;;;;5046237;28;20409;-63
2023/10/07 09:07:32;;;;;;;13.23;3.92;;;19.80;99.90;;;;;;5029627;28;20060;-61
2023/10/07 09:10:16;;;;;;;12.15;3.90;;;19.70;99.90;;;;;;5031271;28;20079;-65
2023/10/07 09:12:50;;;;;;;14.13;4.35;;;19.80;99.90;;;;;;5031238;28;20445;-63
2023/10/07 09:15:21;;;;;;;9.98;4.43;;;19.90;99.90;;;;;;5038697;28;20049;-63
2023/10/07 09:17:47;;;;;;;10.55;3.83;;;20.00;99.90;;;;;;5049809;28;20048;-61
2023/10/07 09:20:17;;;;;;;11.70;4.50;;;20.00;99.90;;;;;;5050703;28;20049;-62
2023/10/07 09:22:53;;;;;;;9.70;3.90;;;20.10;99.90;;;;;;5050213;28;20425;-61
2023/10/07 09:25:31;;;;;;;11.52;3.90;;;20.10;99.90;;;;;;5029101;28;21379;-64
2023/10/07 09:28:01;;;;;;;12.48;3.90;;;20.10;99.90;;;;;;5049305;28;20118;-64
2023/10/07 09:30:36;;;;;;;10.32;3.70;;;20.10;99.90;;;;;;5050902;28;20441;-64
2023/10/07 09:33:14;;;;;;;11.32;3.83;;;20.10;99.90;;;;;;5050434;28;20052;-64
2023/10/07 09:35:43;;;;;;;12.60;4.07;;;20.20;99.90;;;;;;5046959;28;20068;-64
2023/10/07 09:38:27;;;;;;;11.85;3.70;;;20.30;99.90;;;;;;5032356;28;20107;-63
2023/10/07 09:43:27;;;;;;;10.90;3.78;;;20.30;99.90;;;;;;5040800;28;20051;-64
2023/10/07 09:45:58;;;;;;;10.40;4.10;;;20.30;99.90;;;;;;5037113;28;20103;-64
2023/10/07 09:48:30;;;;;;;9.60;3.83;;;20.30;99.90;;;;;;5008918;28;20061;-64
2023/10/07 09:50:58;;;;;;;11.05;4.50;;;20.30;99.90;;;;;;5010997;28;20057;-63
2023/10/07 09:53:48;;;;;;;10.10;3.80;;;20.30;99.90;;;;;;5008400;28;20049;-64
2023/10/07 09:56:32;;;;;;;;;;;20.30;99.90;;;;;;5026111;28;20389;-64
2023/10/07 09:59:26;;;;;;;10.68;3.80;;;20.10;99.90;;;;;;5029342;28;19921;-64
2023/10/07 10:02:43;;;;;;;15.38;4.40;;;20.00;99.90;;;;;;5029809;28;20128;-64
2023/10/07 10:05:51;;;;;;;12.57;4.75;;;19.90;99.90;;;;;;5027575;28;20053;-64
2023/10/07 10:08:47;;;;;;;10.73;3.90;;;19.70;99.90;;;;;;5027947;28;20362;-62
2023/10/07 10:11:30;;;;;;;9.95;3.53;;;19.70;99.90;;;;;;5043229;28;20060;-65
2023/10/07 10:16:51;;;;;;;9.38;4.32;;;19.70;99.90;;;;;;5028243;28;20082;-64
2023/10/07 10:19:25;;;;;;;11.85;4.30;;;19.80;99.90;;;;;;5029278;28;20108;-64
2023/10/07 10:21:52;;;;;;;7.97;3.88;;;19.80;99.90;;;;;;5029374;28;20050;-65
2023/10/07 10:24:23;;;;;;;12.30;4.35;;;19.80;99.90;;;;;;5028948;28;20060;-63
2023/10/07 10:26:50;;;;;;;10.52;3.75;;;19.90;99.90;;;;;;5008766;28;20046;-65
2023/10/07 10:29:25;;;;;;;10.50;4.18;;;19.80;99.90;;;;;;5010066;28;20045;-63
2023/10/07 10:31:58;;;;;;;13.05;5.22;;;19.90;99.90;;;;;;5009020;28;20049;-65
2023/10/07 10:34:26;;;;;;;11.52;4.53;;;19.90;99.90;;;;;;5010267;28;20164;-64
2023/10/07 10:36:56;;;;;;;14.85;4.97;;;19.90;99.90;;;;;;5008795;28;20049;-64
2023/10/07 10:39:25;;;;;;;12.20;5.03;;;20.00;99.90;;;;;;5010183;28;20042;-63
2023/10/07 10:41:54;;;;;;;15.15;4.70;;;20.10;99.90;;;;;;5009729;28;20478;-64
2023/10/07 10:44:21;;;;;;;11.38;4.30;;;20.10;99.90;;;;;;5009152;28;20046;-64
2023/10/07 10:46:49;;;;;;;9.02;3.97;;;20.20;99.90;;;;;;5014089;28;20053;-63
2023/10/07 10:49:18;;;;;;;11.32;4.70;;;20.10;99.90;;;;;;5029696;28;20119;-66
2023/10/07 10:51:48;;;;;;;15.75;4.70;;;20.10;99.90;;;;;;5030031;28;20231;-62
2023/10/07 10:54:19;;;;;;;17.45;4.47;;;20.20;99.90;;;;;;5028693;28;20056;-62
2023/10/07 10:56:55;;;;;;;14.32;4.47;;;20.00;99.90;;;;;;5029613;28;20111;-66
2023/10/07 10:59:36;;;;;;;13.07;4.28;;;20.10;99.90;;;;;;5028581;28;20060;-65
2023/10/07 11:02:05;;;;;;;11.65;4.55;;;20.00;99.90;;;;;;5029605;28;20083;-64
2023/10/07 11:04:32;;;;;;;9.02;4.50;;;20.10;99.90;;;;;;5030562;28;20049;-64
2023/10/07 11:06:59;;;;;;;12.20;4.30;;;20.20;99.90;;;;;;5048895;28;20044;-64
2023/10/07 11:09:26;;;;;;;12.02;4.75;;;20.30;99.90;;;;;;5049356;28;20119;-65
2023/10/07 11:11:56;;;;;;;15.07;4.63;;;20.40;99.90;;;;;;5049451;28;20087;-65
2023/10/07 11:14:23;;;;;;;12.00;4.97;;;20.50;99.90;;;;;;5049205;28;20056;-65
2023/10/07 11:16:51;;;;;;;10.52;4.15;;;20.40;99.90;;;;;;5028829;28;20140;-65
2023/10/07 11:19:19;;;;;;;12.95;4.40;;;20.40;99.90;;;;;;5029350;28;20065;-64
2023/10/07 11:21:49;;;;;;;11.02;4.25;;;20.30;99.90;;;;;;4995838;28;20057;-63
2023/10/07 11:24:26;;;;;;;14.57;4.65;;;20.40;99.90;;;;;;5029598;28;20115;-63
2023/10/07 11:26:56;;;;;;;13.73;4.65;;;20.40;99.90;;;;;;5048651;28;20115;-64
2023/10/07 11:29:29;;;;;;;12.15;4.63;;;20.50;99.90;;;;;;5049420;28;20045;-64
2023/10/07 11:32:04;;;;;;;10.95;4.18;;;20.70;99.90;;;;;;5051633;28;20354;-64
2023/10/07 11:34:41;;;;;;;12.95;4.55;;;20.60;99.90;;;;;;5051609;28;20049;-65
2023/10/07 11:37:21;;;;;;;12.50;4.07;;;20.70;99.90;;;;;;5031554;28;20054;-65
2023/10/07 11:39:49;;;;;;;11.48;4.45;;;20.80;99.90;;;;;;5032893;28;20060;-65
2023/10/07 11:42:20;;;;;;;14.07;4.68;;;20.80;99.90;;;;;;5034090;28;20093;-65
2023/10/07 11:44:54;;;;;;;14.18;4.53;;;20.80;99.90;;;;;;5017498;28;20093;-65
2023/10/07 11:47:23;;;;;;;14.15;4.72;;;20.80;99.90;;;;;;5049989;28;20057;-65
2023/10/07 11:49:49;;;;;;;10.20;4.45;;;20.70;99.90;;;;;;5052708;28;20531;-65
2023/10/07 11:52:20;;;;;;;12.10;4.57;;;20.70;99.90;;;;;;5052579;28;20342;-64
2023/10/07 11:54:47;;;;;;;9.85;4.20;;;20.60;99.90;;;;;;5049719;28;20114;-65
2023/10/07 11:57:13;;;;;;;11.10;4.57;;;20.60;99.90;;;;;;5032563;28;20053;-64
2023/10/07 11:59:42;;;;;;;11.50;4.78;;;20.70;99.90;;;;;;5032361;28;20056;-64
2023/10/07 12:02:10;;;;;;;16.25;4.60;;;20.80;99.90;;;;;;5048942;28;20056;-63
2023/10/07 12:04:38;;;;;;;9.40;4.63;;;20.80;99.90;;;;;;5050542;28;20052;-62
2023/10/07 12:07:08;;;;;;;12.35;4.70;;;20.70;99.90;;;;;;5051420;28;20049;-64
2023/10/07 12:09:35;;;;;;;11.80;5.07;;;20.60;99.90;;;;;;5051677;28;20052;-64
2023/10/07 12:12:02;;;;;;;14.32;4.82;;;20.60;99.90;;;;;;5051803;28;20457;-65
2023/10/07 12:14:29;;;;;;;13.45;4.93;;;20.60;99.90;;;;;;5050684;28;20400;-63
2023/10/07 12:16:55;;;;;;;11.18;4.38;;;20.50;99.90;;;;;;5050106;28;20151;-65
2023/10/07 12:19:23;;;;;;;14.85;4.30;;;20.60;99.90;;;;;;5052139;28;20111;-65
2023/10/07 12:21:49;;;;;;;12.43;4.30;;;20.60;99.90;;;;;;5034095;28;20485;-64
2023/10/07 12:24:16;;;;;;;10.15;4.35;;;20.70;99.90;;;;;;5048334;28;20146;-63
2023/10/07 12:26:46;;;;;;;12.40;4.50;;;20.70;99.90;;;;;;5040988;28;20434;-64
2023/10/07 12:29:13;;;;;;;12.93;4.63;;;20.70;99.90;;;;;;5045874;28;20053;-64
2023/10/07 12:31:40;;;;;;;16.55;5.25;;;20.70;99.90;;;;;;5051049;28;20412;-64
2023/10/07 12:34:09;;;;;;;11.00;5.13;;;20.70;99.90;;;;;;5051153;28;20369;-64
2023/10/07 12:36:38;;;;;;;13.77;4.35;;;20.70;99.90;;;;;;5033008;28;20053;-64
2023/10/07 12:39:11;;;;;;;11.05;4.57;;;20.60;99.90;;;;;;5031297;28;20046;-64
2023/10/07 12:41:41;;;;;;;16.63;5.00;;;20.50;99.90;;;;;;5031745;28;20486;-64
2023/10/07 12:44:08;;;;;;;12.57;4.78;;;20.70;99.90;;;;;;5013406;28;20064;-64
2023/10/07 12:46:40;;;;;;;11.30;4.70;;;20.70;99.90;;;;;;5030339;28;20051;-64
2023/10/07 12:49:10;;;;;;;10.77;4.07;;;20.80;99.90;;;;;;5051828;28;20049;-62
2023/10/07 12:51:42;;;;;;;13.63;4.93;;;20.90;99.90;;;;;;5052114;28;20049;-62
2023/10/07 12:54:09;;;;;;;13.13;5.45;;;20.90;99.90;;;;;;5033469;28;20349;-64
2023/10/07 12:56:36;;;;;;;9.70;5.00;;;20.90;99.90;;;;;;5033518;28;20152;-63
2023/10/07 12:59:18;;;;;;;11.30;4.50;;;20.70;99.90;;;;;;5031430;28;20049;-62
2023/10/07 13:01:55;;;;;;;12.18;4.90;;;20.80;99.90;;;;;;5031405;28;20063;-65
2023/10/07 13:04:25;;;;;;;;;;;20.70;99.90;;;;;;5033059;28;20054;-63
2023/10/07 13:07:00;;;;;;;12.13;4.75;;;20.60;99.90;;;;;;5031378;28;20063;-64
2023/10/07 13:09:30;;;;;;;15.38;5.60;;;20.60;99.90;;;;;;5021321;28;20045;-63
2023/10/07 13:11:58;;;;;;;12.32;5.10;;;20.60;99.90;;;;;;5031201;28;20251;-63
2023/10/07 13:14:28;;;;;;;11.50;4.30;;;20.60;99.90;;;;;;5031260;28;20061;-62
2023/10/07 13:16:58;;;;;;;11.38;5.00;;;20.50;99.90;;;;;;5031699;28;20049;-62
2023/10/07 13:19:28;;;;;;;12.10;4.43;;;20.40;99.90;;;;;;5030912;28;20544;-62
2023/10/07 13:22:01;;;;;;;14.43;5.05;;;20.40;99.90;;;;;;5030591;28;20049;-63
2023/10/07 13:24:30;;;;;;;14.68;5.32;;;20.40;99.90;;;;;;5029601;28;20057;-63
2023/10/07 13:26:57;;;;;;;10.40;4.50;;;20.50;99.90;;;;;;5048204;28;20069;-63
2023/10/07 13:29:24;;;;;;;12.68;4.90;;;20.50;99.90;;;;;;5031645;28;20053;-64
2023/10/07 13:31:52;;;;;;;12.18;4.82;;;20.50;99.90;;;;;;5049265;28;20053;-63
2023/10/07 13:34:19;;;;;;;10.00;4.97;;;20.50;99.90;;;;;;5031657;28;20389;-64
2023/10/07 13:36:45;;;;;;;11.75;4.85;;;20.40;99.90;;;;;;5030011;28;20480;-64
2023/10/07 13:39:17;;;;;;;12.23;5.20;;;20.40;99.90;;;;;;5029113;28;20051;-62